createdAt,value
2018-04-26T00:01:26.712Z,2.78
2018-04-26T00:03:55.621Z,2.35
2018-04-26T00:06:23.776Z,3.05
2018-04-26T00:08:52.692Z,2.50
2018-04-26T00:11:20.849Z,2.80
2018-04-26T00:13:48.983Z,3.00
2018-04-26T00:16:17.104Z,2.58
2018-04-26T00:18:45.269Z,2.90
2018-04-26T00:21:14.165Z,2.92
2018-04-26T00:23:42.365Z,2.70
2018-04-26T00:26:10.491Z,2.90
2018-04-26T00:28:39.407Z,2.78
2018-04-26T00:31:07.565Z,3.37
2018-04-26T00:33:36.481Z,2.75
2018-04-26T00:36:04.605Z,3.12
2018-04-26T00:38:33.520Z,2.85
2018-04-26T00:41:02.451Z,3.45
2018-04-26T00:43:30.611Z,2.75
2018-04-26T00:45:58.751Z,3.17
2018-04-26T00:48:27.667Z,2.85
2018-04-26T00:50:55.807Z,3.53
2018-04-26T00:53:24.731Z,3.08
2018-04-26T00:55:52.848Z,3.50
2018-04-26T00:58:20.991Z,2.53
2018-04-26T01:00:49.121Z,2.85
2018-04-26T01:03:18.034Z,2.67
2018-04-26T01:05:46.167Z,3.33
2018-04-26T01:08:15.809Z,3.10
2018-04-26T01:10:43.991Z,3.05
2018-04-26T01:13:12.125Z,2.60
2018-04-26T01:15:40.357Z,3.30
2018-04-26T01:18:08.467Z,3.40
2018-04-26T01:20:36.613Z,2.80
2018-04-26T01:23:04.758Z,2.87
2018-04-26T01:25:32.887Z,2.70
2018-04-26T01:28:01.013Z,2.60
2018-04-26T01:30:29.169Z,3.05
2018-04-26T01:32:57.313Z,2.55
2018-04-26T01:35:26.207Z,2.05
2018-04-26T01:37:55.233Z,2.42
2018-04-26T01:40:23.377Z,2.40
2018-04-26T01:42:52.279Z,3.00
2018-04-26T01:45:21.321Z,2.30
2018-04-26T01:47:49.445Z,2.40
2018-04-26T01:50:18.337Z,2.78
2018-04-26T01:52:46.481Z,2.85
2018-04-26T01:55:14.608Z,2.90
2018-04-26T01:57:42.745Z,3.12
2018-04-26T02:00:11.665Z,4.10
2018-04-26T02:02:39.808Z,2.80
2018-04-26T02:05:08.696Z,2.85
2018-04-26T02:07:37.608Z,2.35
2018-04-26T02:10:05.745Z,1.90
2018-04-26T02:12:33.962Z,2.00
2018-04-26T02:15:02.102Z,1.75
2018-04-26T02:17:31.028Z,2.17
2018-04-26T02:19:59.158Z,2.60
2018-04-26T02:22:28.810Z,1.83
2018-04-26T02:24:56.953Z,2.00
2018-04-26T02:27:25.849Z,2.10
2018-04-26T02:29:54.758Z,1.80
2018-04-26T02:32:22.933Z,2.12
2018-04-26T02:34:51.057Z,2.47
2018-04-26T02:37:19.192Z,2.45
2018-04-26T02:39:47.308Z,2.90
2018-04-26T02:42:16.976Z,2.92
2018-04-26T02:44:45.496Z,2.92
2018-04-26T02:47:13.626Z,3.87
2018-04-26T02:49:41.748Z,3.35
2018-04-26T02:52:10.665Z,3.28
2018-04-26T02:54:38.802Z,3.95
2018-04-26T02:57:06.960Z,3.80
2018-04-26T02:59:35.088Z,3.80
2018-04-26T03:02:03.213Z,3.75
2018-04-26T03:04:31.356Z,4.07
2018-04-26T03:06:59.500Z,3.65
2018-04-26T03:09:28.422Z,3.95
2018-04-26T03:11:56.529Z,3.83
2018-04-26T03:14:25.436Z,3.75
2018-04-26T03:16:53.592Z,4.03
2018-04-26T03:19:21.709Z,3.92
2018-04-26T03:21:49.863Z,3.55
2018-04-26T03:24:18.751Z,4.55
2018-04-26T03:26:47.689Z,3.80
2018-04-26T03:29:15.833Z,4.30
2018-04-26T03:31:43.964Z,4.25
2018-04-26T03:34:12.091Z,4.22
2018-04-26T03:36:40.245Z,4.12
2018-04-26T03:39:09.151Z,4.40
2018-04-26T03:41:37.277Z,3.85
2018-04-26T03:44:05.409Z,3.78
2018-04-26T03:46:33.543Z,4.30
2018-04-26T03:49:02.455Z,3.80
2018-04-26T03:51:30.603Z,4.12
2018-04-26T03:53:59.495Z,3.80
2018-04-26T03:56:28.401Z,4.05
2018-04-26T03:58:56.541Z,4.28
2018-04-26T04:01:36.508Z,3.50
2018-04-26T04:04:16.522Z,3.92
2018-04-26T04:06:44.643Z,3.65
2018-04-26T04:09:13.551Z,3.90
2018-04-26T04:11:41.725Z,4.10
2018-04-26T04:14:09.867Z,4.12
2018-04-26T04:16:38.792Z,4.03
2018-04-26T04:19:06.960Z,4.05
2018-04-26T04:21:35.841Z,3.90
2018-04-26T04:24:03.971Z,4.32
2018-04-26T04:26:32.109Z,3.90
2018-04-26T04:29:00.274Z,4.43
2018-04-26T04:31:28.401Z,4.12
2018-04-26T04:33:56.531Z,3.70
2018-04-26T04:36:24.691Z,4.20
2018-04-26T04:38:52.827Z,4.18
2018-04-26T04:41:20.957Z,4.35
2018-04-26T04:43:49.121Z,4.43
2018-04-26T04:46:17.240Z,3.80
2018-04-26T04:48:45.383Z,4.22
2018-04-26T04:51:13.503Z,5.10
2018-04-26T04:53:42.414Z,3.72
2018-04-26T04:56:10.545Z,4.22
2018-04-26T04:58:40.193Z,4.28
2018-04-26T05:01:08.372Z,4.03
2018-04-26T05:03:36.563Z,3.85
2018-04-26T05:06:04.724Z,4.12
2018-04-26T05:08:32.868Z,3.83
2018-04-26T05:11:01.761Z,4.22
2018-04-26T05:13:30.659Z,3.80
2018-04-26T05:15:59.653Z,3.85
2018-04-26T05:18:27.797Z,3.80
2018-04-26T05:20:55.921Z,4.12
2018-04-26T05:23:24.063Z,3.97
2018-04-26T05:25:52.971Z,3.87
2018-04-26T05:28:21.148Z,3.85
2018-04-26T05:30:49.281Z,4.10
2018-04-26T05:33:17.492Z,3.75
2018-04-26T05:35:45.640Z,4.32
2018-04-26T05:38:14.664Z,4.07
2018-04-26T05:40:42.898Z,3.58
2018-04-26T05:43:11.736Z,4.07
2018-04-26T05:45:39.907Z,3.85
2018-04-26T05:48:08.039Z,3.50
2018-04-26T05:50:36.961Z,3.92
2018-04-26T05:53:05.149Z,3.58
2018-04-26T05:55:33.274Z,3.97
2018-04-26T05:58:02.197Z,4.40
2018-04-26T06:00:30.334Z,3.72
2018-04-26T06:02:58.561Z,3.97
2018-04-26T06:05:26.723Z,3.80
2018-04-26T06:07:54.852Z,3.67
2018-04-26T06:10:23.011Z,4.15
2018-04-26T06:12:51.163Z,3.80
2018-04-26T06:15:19.289Z,3.83
2018-04-26T06:17:48.205Z,3.53
2018-04-26T06:20:16.353Z,3.37
2018-04-26T06:22:45.245Z,3.87
2018-04-26T06:25:14.155Z,4.03
2018-04-26T06:27:42.345Z,3.87
2018-04-26T06:30:10.484Z,3.95
2018-04-26T06:32:39.415Z,3.70
2018-04-26T06:35:07.550Z,4.03
2018-04-26T06:37:36.478Z,4.03
2018-04-26T06:40:04.629Z,3.17
2018-04-26T06:42:32.780Z,3.42
2018-04-26T06:45:01.764Z,4.00
2018-04-26T06:47:29.824Z,4.12
2018-04-26T06:49:57.992Z,3.97
2018-04-26T06:52:26.123Z,3.40
2018-04-26T06:54:54.253Z,4.03
2018-04-26T06:57:22.392Z,3.58
2018-04-26T06:59:50.547Z,3.70
2018-04-26T07:02:18.732Z,4.32
2018-04-26T07:04:47.606Z,3.58
2018-04-26T07:07:15.751Z,3.87
2018-04-26T07:09:43.893Z,4.20
2018-04-26T07:12:12.043Z,4.20
2018-04-26T07:14:40.171Z,3.72
2018-04-26T07:17:08.384Z,3.70
2018-04-26T07:19:36.534Z,3.47
2018-04-26T07:22:04.674Z,3.75
2018-04-26T07:24:33.580Z,3.53
2018-04-26T07:27:01.748Z,3.47
2018-04-26T07:29:30.686Z,4.32
2018-04-26T07:31:58.816Z,3.33
2018-04-26T07:34:27.700Z,3.42
2018-04-26T07:36:56.617Z,3.28
2018-04-26T07:39:24.768Z,3.20
2018-04-26T07:41:53.698Z,3.50
2018-04-26T07:44:21.808Z,3.37
2018-04-26T07:46:50.712Z,3.60
2018-04-26T07:49:19.622Z,3.35
2018-04-26T07:51:47.764Z,3.70
2018-04-26T07:54:16.667Z,3.70
2018-04-26T07:56:45.583Z,3.58
2018-04-26T07:59:13.739Z,3.70
2018-04-26T08:01:42.796Z,3.40
2018-04-26T08:04:10.825Z,3.15
2018-04-26T08:06:38.951Z,3.70
2018-04-26T08:09:08.597Z,3.30
2018-04-26T08:11:36.803Z,3.22
2018-04-26T08:14:04.924Z,3.62
2018-04-26T08:16:33.831Z,3.03
2018-04-26T08:19:01.997Z,3.20
2018-04-26T08:21:30.918Z,3.13
2018-04-26T08:23:59.044Z,2.80
2018-04-26T08:26:27.251Z,2.50
2018-04-26T08:28:55.392Z,3.23
2018-04-26T08:31:23.545Z,2.80
2018-04-26T08:33:51.769Z,2.80
2018-04-26T08:36:19.903Z,2.80
2018-04-26T08:38:48.045Z,2.67
2018-04-26T08:41:16.189Z,2.60
2018-04-26T08:43:44.381Z,3.17
2018-04-26T08:46:12.517Z,2.87
2018-04-26T08:48:41.445Z,2.87
2018-04-26T08:51:09.582Z,2.90
2018-04-26T08:53:38.714Z,2.93
2018-04-26T08:56:06.826Z,2.87
2018-04-26T08:58:36.457Z,2.93
2018-04-26T09:01:05.356Z,2.60
2018-04-26T09:03:34.243Z,2.47
2018-04-26T09:06:03.128Z,2.67
2018-04-26T09:08:32.029Z,2.77
2018-04-26T09:11:00.165Z,2.37
2018-04-26T09:13:28.386Z,2.40
2018-04-26T09:15:56.627Z,2.50
2018-04-26T09:18:24.732Z,2.50
2018-04-26T09:20:52.868Z,2.70
2018-04-26T09:23:20.997Z,2.30
2018-04-26T09:25:49.152Z,2.60
2018-04-26T09:28:17.302Z,2.70
2018-04-26T09:30:46.221Z,2.60
2018-04-26T09:33:14.393Z,2.37
2018-04-26T09:35:42.528Z,2.60
2018-04-26T09:38:12.175Z,2.70
2018-04-26T09:40:40.361Z,2.30
2018-04-26T09:43:08.534Z,2.40
2018-04-26T09:45:36.633Z,2.53
2018-04-26T09:48:04.780Z,2.17
2018-04-26T09:50:33.472Z,2.40
2018-04-26T09:53:01.598Z,2.60
2018-04-26T09:55:30.581Z,2.53
2018-04-26T09:57:59.397Z,2.50
2018-04-26T10:00:28.324Z,2.33
2018-04-26T10:02:57.393Z,2.40
2018-04-26T10:08:25.782Z,2.17
2018-04-26T10:10:53.936Z,2.20
2018-04-26T10:13:22.059Z,2.30
2018-04-26T10:15:50.179Z,2.27
2018-04-26T10:18:19.061Z,2.70
2018-04-26T10:20:47.216Z,2.53
2018-04-26T10:23:15.379Z,2.50
2018-04-26T10:25:43.520Z,2.30
2018-04-26T10:28:11.632Z,2.43
2018-04-26T10:30:39.878Z,3.00
2018-04-26T10:33:08.050Z,2.50
2018-04-26T10:35:36.167Z,2.63
2018-04-26T10:38:04.310Z,2.50
2018-04-26T10:40:32.452Z,2.97
2018-04-26T10:43:00.644Z,2.70
2018-04-26T10:45:28.799Z,2.60
2018-04-26T10:47:56.922Z,2.67
2018-04-26T10:50:25.256Z,2.40
2018-04-26T10:52:53.388Z,2.23
2018-04-26T10:55:21.504Z,2.13
2018-04-26T10:57:49.629Z,2.53
2018-04-26T11:00:17.812Z,2.50
2018-04-26T11:02:45.964Z,2.30
2018-04-26T11:05:14.103Z,2.40
2018-04-26T11:07:42.224Z,2.50
2018-04-26T11:10:10.376Z,2.50
2018-04-26T11:12:38.608Z,2.60
2018-04-26T11:15:06.733Z,2.50
2018-04-26T11:17:34.856Z,2.70
2018-04-26T11:20:02.994Z,2.37
2018-04-26T11:22:31.134Z,3.10
2018-04-26T11:24:59.253Z,2.60
2018-04-26T11:27:28.137Z,3.07
2018-04-26T11:29:57.074Z,2.60
2018-04-26T11:32:25.212Z,2.13
2018-04-26T11:34:54.101Z,2.50
2018-04-26T11:37:22.994Z,2.53
2018-04-26T11:39:51.901Z,2.37
2018-04-26T11:42:20.037Z,2.37
2018-04-26T11:44:48.155Z,2.23
2018-04-26T11:47:16.273Z,2.30
2018-04-26T11:49:44.415Z,2.57
2018-04-26T11:52:12.581Z,2.10
2018-04-26T11:54:40.692Z,2.50
2018-04-26T11:57:09.604Z,2.93
2018-04-26T11:59:37.740Z,2.60
2018-04-26T12:02:06.071Z,2.30
2018-04-26T12:04:34.194Z,2.80
2018-04-26T12:07:02.324Z,2.73
2018-04-26T12:09:30.476Z,2.60
2018-04-26T12:11:59.385Z,2.30
2018-04-26T12:14:28.304Z,2.67
2018-04-26T12:16:56.427Z,2.57
2018-04-26T12:19:25.316Z,2.67
2018-04-26T12:21:54.207Z,2.43
2018-04-26T12:24:23.137Z,2.60
2018-04-26T12:26:51.260Z,2.57
2018-04-26T12:29:19.428Z,2.30
2018-04-26T12:31:47.530Z,2.57
2018-04-26T12:34:16.464Z,2.40
2018-04-26T12:36:44.584Z,2.43
2018-04-26T12:39:13.498Z,2.03
2018-04-26T12:41:41.640Z,2.20
2018-04-26T12:44:10.551Z,2.20
2018-04-26T12:46:38.745Z,1.87
2018-04-26T12:49:06.923Z,2.33
2018-04-26T12:51:35.042Z,1.50
2018-04-26T12:54:03.167Z,1.70
2018-04-26T12:56:31.293Z,1.80
2018-04-26T12:58:59.429Z,1.93
2018-04-26T13:01:27.541Z,2.23
2018-04-26T13:03:55.688Z,2.10
2018-04-26T13:06:23.811Z,1.63
2018-04-26T13:08:51.930Z,2.10
2018-04-26T13:11:20.160Z,1.83
2018-04-26T13:13:48.324Z,1.73
2018-04-26T13:16:17.226Z,1.70
2018-04-26T13:18:45.344Z,1.93
2018-04-26T13:21:13.498Z,1.60
2018-04-26T13:23:41.650Z,1.70
2018-04-26T13:26:09.822Z,1.53
2018-04-26T13:28:37.945Z,1.90
2018-04-26T13:31:06.116Z,1.70
2018-04-26T13:33:35.763Z,1.73
2018-04-26T13:36:03.885Z,2.10
2018-04-26T13:38:32.019Z,1.70
2018-04-26T13:41:00.185Z,1.93
2018-04-26T13:43:28.313Z,2.30
2018-04-26T13:45:56.532Z,2.10
2018-04-26T13:48:24.665Z,2.10
2018-04-26T13:50:52.773Z,2.00
2018-04-26T13:53:20.911Z,2.00
2018-04-26T13:55:49.031Z,2.13
2018-04-26T13:58:17.162Z,2.00
2018-04-26T14:00:46.817Z,2.00
2018-04-26T14:03:14.937Z,2.00
2018-04-26T14:05:43.119Z,1.93
2018-04-26T14:08:11.246Z,1.80
2018-04-26T14:10:39.361Z,2.10
2018-04-26T14:13:07.483Z,1.93
2018-04-26T14:15:35.727Z,1.93
2018-04-26T14:18:04.620Z,1.80
2018-04-26T14:20:33.536Z,2.13
2018-04-26T14:23:01.709Z,2.07
2018-04-26T14:25:29.879Z,2.13
2018-04-26T14:27:57.996Z,1.93
2018-04-26T14:30:26.120Z,2.23
2018-04-26T14:32:54.248Z,1.77
2018-04-26T14:35:23.920Z,1.70
2018-04-26T14:37:52.038Z,1.90
2018-04-26T14:40:20.263Z,1.50
2018-04-26T14:42:48.397Z,1.70
2018-04-26T14:45:17.321Z,1.70
2018-04-26T14:47:45.490Z,2.07
2018-04-26T14:50:13.601Z,1.70
2018-04-26T14:52:41.748Z,1.87
2018-04-26T14:55:09.901Z,1.80
2018-04-26T14:57:38.073Z,1.90
2018-04-26T15:00:06.203Z,1.90
2018-04-26T15:02:34.376Z,2.07
2018-04-26T15:05:02.539Z,1.77
2018-04-26T15:07:30.657Z,1.77
2018-04-26T15:09:59.540Z,1.80
2018-04-26T15:12:28.459Z,1.77
2018-04-26T15:14:56.580Z,1.60
2018-04-26T15:17:24.698Z,1.80
2018-04-26T15:19:52.852Z,1.63
2018-04-26T15:22:21.754Z,2.00
2018-04-26T15:24:50.667Z,2.00
2018-04-26T15:27:18.801Z,2.07
2018-04-26T15:29:46.917Z,1.90
2018-04-26T15:32:15.066Z,1.70
2018-04-26T15:34:43.945Z,1.97
2018-04-26T15:37:12.834Z,1.70
2018-04-26T15:39:41.723Z,1.97
2018-04-26T15:42:10.631Z,1.83
2018-04-26T15:44:39.595Z,1.83
2018-04-26T15:47:07.728Z,1.63
2018-04-26T15:49:35.852Z,1.60
2018-04-26T15:52:04.824Z,1.63
2018-04-26T15:54:35.774Z,1.77
2018-04-26T15:57:21.744Z,1.40
2018-04-26T16:00:01.848Z,1.67
2018-04-26T16:02:57.564Z,1.77
2018-04-26T16:05:37.788Z,1.67
2018-04-26T16:08:23.500Z,1.60
2018-04-26T16:11:10.207Z,1.73
2018-04-26T16:13:56.882Z,1.77
2018-04-26T16:16:42.576Z,1.90
2018-04-26T16:19:34.256Z,1.40
2018-04-26T16:22:20.003Z,1.80
2018-04-26T16:25:00.999Z,1.50
2018-04-26T16:27:44.106Z,1.53
2018-04-26T16:30:25.056Z,1.47
2018-04-26T16:33:05.249Z,1.60
2018-04-26T16:35:46.172Z,1.27
2018-04-26T16:38:26.170Z,1.67
2018-04-26T16:40:54.308Z,1.63
2018-04-26T16:43:22.428Z,1.70
2018-04-26T16:45:50.572Z,1.63
2018-04-26T16:48:19.452Z,1.70
2018-04-26T16:50:48.370Z,1.50
2018-04-26T16:53:16.500Z,1.30
2018-04-26T16:55:44.656Z,1.67
2018-04-26T16:58:12.780Z,1.43
2018-04-26T17:00:41.680Z,1.87
2018-04-26T17:03:09.815Z,1.50
2018-04-26T17:05:37.985Z,1.57
2018-04-26T17:08:06.819Z,1.60
2018-04-26T17:10:34.936Z,1.60
2018-04-26T17:13:03.076Z,1.80
2018-04-26T17:15:31.232Z,1.60
2018-04-26T17:17:59.356Z,1.30
2018-04-26T17:20:27.584Z,1.70
2018-04-26T17:22:55.764Z,1.50
2018-04-26T17:25:23.896Z,1.60
2018-04-26T17:27:52.213Z,1.47
2018-04-26T17:30:20.254Z,1.40
2018-04-26T17:32:49.131Z,1.40
2018-04-26T17:35:17.339Z,1.70
2018-04-26T17:37:45.465Z,1.60
2018-04-26T17:40:13.624Z,1.50
2018-04-26T17:42:41.717Z,1.30
2018-04-26T17:45:09.887Z,1.80
2018-04-26T17:47:38.029Z,1.70
2018-04-26T17:50:06.177Z,1.57
2018-04-26T17:52:34.327Z,1.40
2018-04-26T17:55:03.259Z,1.87
2018-04-26T17:57:31.373Z,1.70
2018-04-26T18:00:01.013Z,1.60
2018-04-26T18:02:30.009Z,1.50
2018-04-26T18:04:58.126Z,1.80
2018-04-26T18:07:26.280Z,1.60
2018-04-26T18:09:54.404Z,1.70
2018-04-26T18:12:23.284Z,1.63
2018-04-26T18:14:51.436Z,1.87
2018-04-26T18:17:19.592Z,1.90
2018-04-26T18:19:47.715Z,1.60
2018-04-26T18:22:15.844Z,1.70
2018-04-26T18:24:43.980Z,1.60
2018-04-26T18:27:12.111Z,1.70
2018-04-26T18:29:40.236Z,2.10
2018-04-26T18:32:08.429Z,2.03
2018-04-26T18:34:36.602Z,2.30
2018-04-26T18:37:04.724Z,2.10
2018-04-26T18:39:32.868Z,1.93
2018-04-26T18:42:01.024Z,1.60
2018-04-26T18:44:29.156Z,2.07
2018-04-26T18:46:58.836Z,1.90
2018-04-26T18:49:26.956Z,1.50
2018-04-26T18:51:55.088Z,1.70
2018-04-26T18:54:23.256Z,1.80
2018-04-26T18:56:51.404Z,1.70
2018-04-26T18:59:19.524Z,1.80
2018-04-26T19:01:48.405Z,2.03
2018-04-26T19:04:16.616Z,1.93
2018-04-26T19:06:44.757Z,2.10
2018-04-26T19:09:12.874Z,1.80
2018-04-26T19:11:40.982Z,2.27
2018-04-26T19:14:09.147Z,1.90
2018-04-26T19:16:37.294Z,1.80
2018-04-26T19:19:05.406Z,2.57
2018-04-26T19:21:33.532Z,3.10
2018-04-26T19:24:01.647Z,2.60
2018-04-26T19:26:29.807Z,2.63
2018-04-26T19:28:57.983Z,2.90
2018-04-26T19:31:26.092Z,2.33
2018-04-26T19:33:55.045Z,1.80
2018-04-26T19:36:23.900Z,1.80
2018-04-26T19:38:52.045Z,2.00
2018-04-26T19:41:20.940Z,1.80
2018-04-26T19:43:49.832Z,1.63
2018-04-26T19:46:18.736Z,1.80
2018-04-26T19:48:46.888Z,1.93
2018-04-26T19:51:15.786Z,2.17
2018-04-26T19:53:44.788Z,1.87
2018-04-26T19:56:13.680Z,1.80
2018-04-26T19:58:41.844Z,1.63
2018-04-26T20:01:10.729Z,2.10
2018-04-26T20:03:39.621Z,1.90
2018-04-26T20:06:07.821Z,2.10
2018-04-26T20:08:35.957Z,1.97
2018-04-26T20:11:04.165Z,2.40
2018-04-26T20:13:32.311Z,1.90
2018-04-26T20:16:00.516Z,2.33
2018-04-26T20:18:28.678Z,1.83
2018-04-26T20:20:57.589Z,1.60
2018-04-26T20:23:25.756Z,2.10
2018-04-26T20:25:53.904Z,1.73
2018-04-26T20:28:22.976Z,1.80
2018-04-26T20:30:51.056Z,1.90
2018-04-26T20:33:19.970Z,1.67
2018-04-26T20:35:48.192Z,1.70
2018-04-26T20:38:16.323Z,2.12
2018-04-26T20:40:44.460Z,1.55
2018-04-26T20:43:13.356Z,1.62
2018-04-26T20:45:41.516Z,2.10
2018-04-26T20:48:11.280Z,1.67
2018-04-26T20:50:39.466Z,2.22
2018-04-26T20:53:07.584Z,2.10
2018-04-26T20:55:37.332Z,1.87
2018-04-26T20:58:05.473Z,2.20
2018-04-26T21:00:33.634Z,1.98
2018-04-26T21:03:01.770Z,2.17
2018-04-26T21:05:29.965Z,2.05
2018-04-26T21:07:58.134Z,2.37
2018-04-26T21:10:26.286Z,1.90
2018-04-26T21:12:54.471Z,1.83
2018-04-26T21:15:22.630Z,2.40
2018-04-26T21:17:50.777Z,2.17
2018-04-26T21:20:19.732Z,2.15
2018-04-26T21:22:47.877Z,2.15
2018-04-26T21:25:16.033Z,1.90
2018-04-26T21:27:44.199Z,2.17
2018-04-26T21:30:13.111Z,2.30
2018-04-26T21:32:41.275Z,2.08
2018-04-26T21:35:09.448Z,2.10
2018-04-26T21:37:37.651Z,2.22
2018-04-26T21:40:05.812Z,1.75
2018-04-26T21:42:33.991Z,2.25
2018-04-26T21:45:02.214Z,2.10
2018-04-26T21:47:30.326Z,2.10
2018-04-26T21:50:04.254Z,2.20
2018-04-26T21:52:38.101Z,2.00
2018-04-26T21:55:11.862Z,2.05
2018-04-26T21:57:45.695Z,2.15
2018-04-26T22:00:19.484Z,2.00
2018-04-26T22:02:47.132Z,2.22
2018-04-26T22:05:16.737Z,2.00
2018-04-26T22:07:47.377Z,1.77
2018-04-26T22:10:15.537Z,2.03
2018-04-26T22:12:43.686Z,2.45
2018-04-26T22:15:11.983Z,2.10
2018-04-26T22:17:40.100Z,2.10
2018-04-26T22:20:09.749Z,2.65
2018-04-26T22:22:37.897Z,2.10
2018-04-26T22:25:06.808Z,1.92
2018-04-26T22:27:35.013Z,2.17
2018-04-26T22:30:03.201Z,2.10
2018-04-26T22:32:31.327Z,2.08
2018-04-26T22:34:59.460Z,2.10
2018-04-26T22:37:27.637Z,2.10
2018-04-26T22:39:57.375Z,2.10
2018-04-26T22:42:26.266Z,2.20
2018-04-26T22:44:55.172Z,2.08
2018-04-26T22:47:23.350Z,2.45
2018-04-26T22:49:51.484Z,2.17
2018-04-26T22:52:20.416Z,2.25
2018-04-26T22:54:48.587Z,2.20
2018-04-26T22:57:16.768Z,1.98
2018-04-26T22:59:44.943Z,2.10
2018-04-26T23:02:13.064Z,2.20
2018-04-26T23:04:41.214Z,2.05
2018-04-26T23:07:09.402Z,2.10
2018-04-26T23:09:37.528Z,2.37
2018-04-26T23:12:05.654Z,2.35
2018-04-26T23:14:35.413Z,2.30
2018-04-26T23:17:03.578Z,2.20
2018-04-26T23:19:31.710Z,2.35
2018-04-26T23:22:01.394Z,2.42
2018-04-26T23:24:29.520Z,2.30
2018-04-26T23:26:58.449Z,2.10
2018-04-26T23:29:26.626Z,2.22
2018-04-26T23:31:54.759Z,2.12
2018-04-26T23:34:23.669Z,2.33
2018-04-26T23:36:51.799Z,2.12
2018-04-26T23:39:20.733Z,2.50
2018-04-26T23:41:48.929Z,2.50
2018-04-26T23:44:17.063Z,2.20
2018-04-26T23:46:45.215Z,2.65
2018-04-26T23:49:14.159Z,2.30
2018-04-26T23:51:42.322Z,2.50
2018-04-26T23:54:10.458Z,2.50
2018-04-26T23:56:39.378Z,2.50
2018-04-26T23:59:07.545Z,2.60
